Kezdőlap
METAR-TAF:

METAR-TAF

Repülőterek :

Red Oak Municipal Airport

Red Oak, Iowa, Amerikai Egyesült Államok

földrajzi szélesség: 41-01N, földrajzi hosszúság: 095-16W, magasság: 318 m

Jelenlegi meteorológiai megfigyelések

A jelentés 20 perccel ezelõtt készült, 18:15 UTC
Kelet-északkeleti szél 9 kt széllökések: 16 kt, északkeleti és keleti között változik
Hőmérséklet 7°C
Páratartalom 53%
Légköri nyomás 1023 hPa
Látótávolság: 16.1 km
Kevés felhő 11000 lábon

METAR: KRDK 041815Z AUTO 07009G16KT 040V100 10SM FEW110 07/M02 A3022 RMK AO2

Idő: 13:35 (18:35 UTC)


TAF: hiányzik

Meteorológiai megfigyelések és előrejelzések több, mint 4000 repülőtéren (METAR és TAF jelentéseket).

A térképen piros és sárga pontok jelzik az elérhető meteorológiai állomásokat.

Mozgassa az egeret a pont fölött, hogy megjelenjen az állomás neve.

Azután kattintson az időjárási megfigyelések és előrejelzések megtekintéséhez.

A térkép megváltoztatása: kattintson a fekete keresztel jelölt zöld gombra ráközelítéshez, a vonallal jelölt zöld gombra távolításhoz, vagy a zöld nyilakra a szomszédos térképek eléréséhez.


METAR-TAF: